createdAt,value
2019-04-30T00:00:38.334Z,79.67
2019-04-30T00:03:15.379Z,79.48
2019-04-30T00:05:45.102Z,79.97
2019-04-30T00:08:16.540Z,80.08
2019-04-30T00:10:48.117Z,79.90
2019-04-30T00:13:20.941Z,79.79
2019-04-30T00:16:00.101Z,79.80
2019-04-30T00:18:30.787Z,79.79
2019-04-30T00:21:02.051Z,79.67
2019-04-30T00:23:35.835Z,79.87
2019-04-30T00:26:10.231Z,80.37
2019-04-30T00:28:44.371Z,80.28
2019-04-30T00:31:17.288Z,80.59
2019-04-30T00:33:47.050Z,80.76
2019-04-30T00:36:18.528Z,80.56
2019-04-30T00:38:50.368Z,80.46
2019-04-30T00:41:22.029Z,80.34
2019-04-30T00:43:55.060Z,80.53
2019-04-30T00:46:29.298Z,80.54
2019-04-30T00:49:09.283Z,80.26
2019-04-30T00:51:35.428Z,80.02
2019-04-30T00:54:07.292Z,79.93
2019-04-30T00:56:38.881Z,80.10
2019-04-30T00:59:15.416Z,80.13
2019-04-30T01:01:51.329Z,79.81
2019-04-30T01:04:28.234Z,79.84
2019-04-30T01:07:00.397Z,80.15
2019-04-30T01:09:51.574Z,80.03
2019-04-30T01:12:27.701Z,79.69
2019-04-30T01:14:56.304Z,79.79
2019-04-30T01:17:27.698Z,80.14
2019-04-30T01:19:59.487Z,79.79
2019-04-30T01:22:32.911Z,79.65
2019-04-30T01:25:08.968Z,79.08
2019-04-30T01:27:45.760Z,79.29
2019-04-30T01:30:18.702Z,79.48
2019-04-30T01:32:52.139Z,79.91
2019-04-30T01:35:23.894Z,80.10
2019-04-30T01:37:54.388Z,80.08
2019-04-30T01:40:26.066Z,79.82
2019-04-30T01:42:59.339Z,79.79
2019-04-30T01:45:31.700Z,79.72
2019-04-30T01:48:08.857Z,78.95
2019-04-30T01:50:38.729Z,78.79
2019-04-30T01:53:13.096Z,79.17
2019-04-30T01:55:45.877Z,79.50
2019-04-30T01:58:22.563Z,79.70
2019-04-30T02:00:59.366Z,79.45
2019-04-30T02:03:31.135Z,79.64
2019-04-30T02:06:04.002Z,79.66
2019-04-30T02:08:39.294Z,79.96
2019-04-30T02:11:10.793Z,80.19
2019-04-30T02:13:42.207Z,80.05
2019-04-30T02:16:13.605Z,80.04
2019-04-30T02:18:45.188Z,80.00
2019-04-30T02:21:19.071Z,79.65
2019-04-30T02:23:50.139Z,79.41
2019-04-30T02:26:23.292Z,79.37
2019-04-30T02:28:54.681Z,79.55
2019-04-30T02:31:26.233Z,79.71
2019-04-30T02:34:00.485Z,79.79
2019-04-30T02:36:49.946Z,80.33
2019-04-30T02:39:23.608Z,80.49
2019-04-30T02:41:55.689Z,80.39
2019-04-30T02:44:29.333Z,79.85
2019-04-30T02:47:02.368Z,79.36
2019-04-30T02:49:34.975Z,78.92
2019-04-30T02:52:09.278Z,78.67
2019-04-30T02:54:43.442Z,78.22
2019-04-30T02:57:15.184Z,78.11
2019-04-30T03:00:06.404Z,78.40
2019-04-30T03:02:39.450Z,78.70
2019-04-30T03:05:13.680Z,78.83
2019-04-30T03:07:45.583Z,78.74
2019-04-30T03:10:19.711Z,78.68
2019-04-30T03:12:50.322Z,78.41
2019-04-30T03:15:22.857Z,78.05
2019-04-30T03:18:00.569Z,78.01
2019-04-30T03:20:42.271Z,78.28
2019-04-30T03:23:13.674Z,77.99
2019-04-30T03:25:45.129Z,77.90
2019-04-30T03:28:16.652Z,77.62
2019-04-30T03:30:56.305Z,77.20
2019-04-30T03:33:23.664Z,76.93
2019-04-30T03:36:01.834Z,77.15
2019-04-30T03:38:30.219Z,76.76
2019-04-30T03:41:01.659Z,76.91
2019-04-30T03:43:33.256Z,77.61
2019-04-30T03:46:04.801Z,77.71
2019-04-30T03:48:36.208Z,77.59
2019-04-30T03:51:10.663Z,78.04
2019-04-30T03:53:42.701Z,77.83
2019-04-30T03:56:14.478Z,77.56
2019-04-30T03:58:45.927Z,77.88
2019-04-30T04:01:34.121Z,77.85
2019-04-30T04:04:13.526Z,77.82
2019-04-30T04:06:52.662Z,77.35
2019-04-30T04:09:31.607Z,77.70
2019-04-30T04:12:21.587Z,78.11
2019-04-30T04:14:54.283Z,78.54
2019-04-30T04:17:26.024Z,78.00
2019-04-30T04:19:59.785Z,77.71
2019-04-30T04:22:31.029Z,77.27
2019-04-30T04:25:02.610Z,76.88
2019-04-30T04:27:34.196Z,76.68
2019-04-30T04:30:10.339Z,76.60
2019-04-30T04:32:40.978Z,77.21
2019-04-30T04:35:13.042Z,77.05
2019-04-30T04:37:44.737Z,76.43
2019-04-30T04:40:16.423Z,76.24
2019-04-30T04:42:49.270Z,76.29
2019-04-30T04:45:20.966Z,76.32
2019-04-30T04:47:52.563Z,76.26
2019-04-30T04:50:25.018Z,76.47
2019-04-30T04:52:56.676Z,76.06
2019-04-30T04:55:29.875Z,75.58
2019-04-30T04:58:01.695Z,75.22
2019-04-30T05:00:34.176Z,75.64
2019-04-30T05:03:10.247Z,75.17
2019-04-30T05:05:41.731Z,74.53
2019-04-30T05:08:14.152Z,73.75
2019-04-30T05:10:45.744Z,73.84
2019-04-30T05:13:19.082Z,72.97
2019-04-30T05:15:51.642Z,72.25
2019-04-30T05:18:23.155Z,71.33
2019-04-30T05:20:56.813Z,71.13
2019-04-30T05:23:29.847Z,70.53
2019-04-30T05:26:02.489Z,70.57
2019-04-30T05:28:39.367Z,70.21
2019-04-30T05:31:18.431Z,70.86
2019-04-30T05:33:50.653Z,70.53
2019-04-30T05:36:22.453Z,69.57
2019-04-30T05:38:54.049Z,69.12
2019-04-30T05:41:29.799Z,68.48
2019-04-30T05:44:01.626Z,68.33
2019-04-30T05:46:33.178Z,69.22
2019-04-30T05:49:04.828Z,69.45
2019-04-30T05:51:38.802Z,69.12
2019-04-30T05:54:10.467Z,69.02
2019-04-30T05:56:42.790Z,69.16
2019-04-30T05:59:14.348Z,68.82
2019-04-30T06:01:48.723Z,68.72
2019-04-30T06:04:19.378Z,68.51
2019-04-30T06:06:50.956Z,67.92
2019-04-30T06:09:33.682Z,67.09
2019-04-30T06:12:26.307Z,68.02
2019-04-30T06:15:02.343Z,68.13
2019-04-30T06:17:34.501Z,69.40
2019-04-30T06:20:18.104Z,69.40
2019-04-30T06:22:40.750Z,68.94
2019-04-30T06:25:12.284Z,68.71
2019-04-30T06:27:45.837Z,69.01
2019-04-30T06:30:19.718Z,68.10
2019-04-30T06:32:55.185Z,68.52
2019-04-30T06:35:26.840Z,67.83
2019-04-30T06:37:58.939Z,67.71
2019-04-30T06:40:30.649Z,68.45
2019-04-30T06:43:02.387Z,68.60
2019-04-30T06:45:35.536Z,67.77
2019-04-30T06:48:08.753Z,67.58
2019-04-30T06:50:40.290Z,67.61
2019-04-30T06:53:11.702Z,66.98
2019-04-30T06:55:44.192Z,66.29
2019-04-30T06:58:15.675Z,67.28
2019-04-30T07:00:47.160Z,66.92
2019-04-30T07:03:19.155Z,66.86
2019-04-30T07:05:50.668Z,66.76
2019-04-30T07:08:46.922Z,67.31
2019-04-30T07:11:21.671Z,67.22
2019-04-30T07:13:53.314Z,66.78
2019-04-30T07:16:24.803Z,67.50
2019-04-30T07:18:56.178Z,66.82
2019-04-30T07:21:31.685Z,65.99
2019-04-30T07:24:05.634Z,65.84
2019-04-30T07:26:38.941Z,65.36
2019-04-30T07:29:10.308Z,64.97
2019-04-30T07:31:42.738Z,64.67
2019-04-30T07:34:14.111Z,65.09
2019-04-30T07:36:51.076Z,64.89
2019-04-30T07:39:19.313Z,64.18
2019-04-30T07:41:51.783Z,63.35
2019-04-30T07:44:33.726Z,62.86
2019-04-30T07:46:56.343Z,62.01
2019-04-30T07:49:46.515Z,62.46
2019-04-30T07:52:02.194Z,61.30
2019-04-30T07:54:34.207Z,62.01
2019-04-30T07:57:05.557Z,61.44
2019-04-30T07:59:37.135Z,61.09
2019-04-30T08:02:13.840Z,61.19
2019-04-30T08:04:51.226Z,61.39
2019-04-30T08:07:22.592Z,61.27
2019-04-30T08:09:54.042Z,60.97
2019-04-30T08:12:31.763Z,60.64
2019-04-30T08:14:59.713Z,60.35
2019-04-30T08:17:31.131Z,60.26
2019-04-30T08:20:02.593Z,60.07
2019-04-30T08:22:34.417Z,60.03
2019-04-30T08:25:06.707Z,59.60
2019-04-30T08:27:39.289Z,59.90
2019-04-30T08:30:23.032Z,59.95
2019-04-30T08:32:44.582Z,60.16
2019-04-30T08:35:16.012Z,59.47
2019-04-30T08:37:49.525Z,59.82
2019-04-30T08:40:21.144Z,59.42
2019-04-30T08:42:56.185Z,59.21
2019-04-30T08:45:31.460Z,59.92
2019-04-30T08:48:02.376Z,60.15
2019-04-30T08:50:34.663Z,58.66
2019-04-30T08:53:06.302Z,59.09
2019-04-30T08:55:39.143Z,58.45
2019-04-30T08:58:14.919Z,57.50
2019-04-30T09:00:44.113Z,56.33
2019-04-30T09:03:15.795Z,57.16
2019-04-30T09:05:49.926Z,57.33
2019-04-30T09:08:21.542Z,57.29
2019-04-30T09:10:52.922Z,56.75
2019-04-30T09:13:24.547Z,56.15
2019-04-30T09:15:56.295Z,56.82
2019-04-30T09:18:29.162Z,56.67
2019-04-30T09:21:05.962Z,56.43
2019-04-30T09:23:43.950Z,56.13
2019-04-30T09:26:08.679Z,55.68
2019-04-30T09:31:06.419Z,55.14
2019-04-30T09:33:39.366Z,54.02
2019-04-30T09:36:10.909Z,55.26
2019-04-30T09:38:42.374Z,55.14
2019-04-30T09:41:14.057Z,55.67
2019-04-30T09:43:45.417Z,55.72
2019-04-30T09:46:24.641Z,55.84
2019-04-30T09:48:50.858Z,55.73
2019-04-30T09:51:24.725Z,55.89
2019-04-30T09:53:59.963Z,56.59
2019-04-30T09:56:29.396Z,56.25
2019-04-30T09:59:01.024Z,55.77
2019-04-30T10:01:33.249Z,55.26
2019-04-30T10:04:05.933Z,53.97
2019-04-30T10:06:40.186Z,54.01
2019-04-30T10:09:12.579Z,53.98
2019-04-30T10:11:45.624Z,53.14
2019-04-30T10:14:17.142Z,52.53
2019-04-30T10:16:57.179Z,52.12
2019-04-30T10:19:29.371Z,52.64
2019-04-30T10:22:00.801Z,53.38
2019-04-30T10:24:34.202Z,52.90
2019-04-30T10:27:10.428Z,52.41
2019-04-30T10:29:41.200Z,52.00
2019-04-30T10:32:12.993Z,51.25
2019-04-30T10:34:45.907Z,51.28
2019-04-30T10:37:18.901Z,51.40
2019-04-30T10:39:50.427Z,51.41
2019-04-30T10:42:22.039Z,51.07
2019-04-30T10:44:53.414Z,51.52
2019-04-30T10:47:25.862Z,51.75
2019-04-30T10:49:58.544Z,51.61
2019-04-30T10:52:30.016Z,51.72
2019-04-30T10:55:04.506Z,51.82
2019-04-30T10:57:35.586Z,51.80
2019-04-30T11:00:11.337Z,51.34
2019-04-30T11:02:42.704Z,50.84
2019-04-30T11:05:15.579Z,52.21
2019-04-30T11:07:46.989Z,52.14
2019-04-30T11:10:18.924Z,52.30
2019-04-30T11:12:50.395Z,52.00
2019-04-30T11:15:22.815Z,52.19
2019-04-30T11:17:54.404Z,51.51
2019-04-30T11:20:27.124Z,52.18
2019-04-30T11:22:58.800Z,51.58
2019-04-30T11:25:31.345Z,51.42
2019-04-30T11:28:03.844Z,52.14
2019-04-30T11:30:36.591Z,51.38
2019-04-30T11:33:09.974Z,51.80
2019-04-30T11:35:43.573Z,52.56
2019-04-30T11:38:14.996Z,52.08
2019-04-30T11:40:48.581Z,52.30
2019-04-30T11:43:20.290Z,53.15
2019-04-30T11:45:54.516Z,52.98
2019-04-30T11:48:26.003Z,52.59
2019-04-30T11:50:59.436Z,52.82
2019-04-30T11:53:30.989Z,52.67
2019-04-30T11:56:02.656Z,52.75
2019-04-30T11:58:33.889Z,52.81
2019-04-30T12:01:06.881Z,52.71
2019-04-30T12:03:39.417Z,52.90
2019-04-30T12:06:12.028Z,53.43
2019-04-30T12:09:00.353Z,53.50
2019-04-30T12:11:40.839Z,53.31
2019-04-30T12:14:12.583Z,53.79
2019-04-30T12:16:45.280Z,53.56
2019-04-30T12:19:16.640Z,53.01
2019-04-30T12:21:48.006Z,52.75
2019-04-30T12:24:20.554Z,52.92
2019-04-30T12:26:51.991Z,53.11
2019-04-30T12:29:23.557Z,53.31
2019-04-30T12:31:55.009Z,52.40
2019-04-30T12:34:26.503Z,52.70
2019-04-30T12:36:59.647Z,52.31
2019-04-30T12:39:31.308Z,51.99
2019-04-30T12:42:02.827Z,52.64
2019-04-30T12:44:35.201Z,53.18
2019-04-30T12:47:06.658Z,52.64
2019-04-30T12:49:45.710Z,52.56
2019-04-30T12:52:35.419Z,52.06
2019-04-30T12:55:15.656Z,51.83
2019-04-30T12:57:58.287Z,51.98
2019-04-30T13:00:19.971Z,52.29
2019-04-30T13:02:51.727Z,52.70
2019-04-30T13:05:23.434Z,52.42
2019-04-30T13:07:55.526Z,52.65
2019-04-30T13:10:27.989Z,52.82
2019-04-30T13:12:59.949Z,52.53
2019-04-30T13:15:33.858Z,53.49
2019-04-30T13:18:05.272Z,53.62
2019-04-30T13:20:39.038Z,54.72
2019-04-30T13:23:10.033Z,54.76
2019-04-30T13:25:51.072Z,54.30
2019-04-30T13:28:17.500Z,54.23
2019-04-30T13:30:49.442Z,53.33
2019-04-30T13:33:25.671Z,53.81
2019-04-30T13:35:58.829Z,53.97
2019-04-30T13:38:31.969Z,53.73
2019-04-30T13:41:05.054Z,52.74
2019-04-30T13:43:58.625Z,53.18
2019-04-30T13:46:29.614Z,53.41
2019-04-30T13:49:01.173Z,53.22
2019-04-30T13:51:32.616Z,53.35
2019-04-30T13:54:05.700Z,53.87
2019-04-30T13:56:39.692Z,54.45
2019-04-30T13:59:12.442Z,54.74
2019-04-30T14:01:43.987Z,54.92
2019-04-30T14:04:17.156Z,55.05
2019-04-30T14:06:50.410Z,54.75
2019-04-30T14:09:26.591Z,54.90
2019-04-30T14:11:58.148Z,55.56
2019-04-30T14:14:29.698Z,55.67
2019-04-30T14:17:01.365Z,56.19
2019-04-30T14:19:32.976Z,56.72
2019-04-30T14:22:04.448Z,57.42
2019-04-30T14:24:35.937Z,57.28
2019-04-30T14:27:20.409Z,56.84
2019-04-30T14:29:53.430Z,56.82
2019-04-30T14:32:24.956Z,56.85
2019-04-30T14:34:58.842Z,56.72
2019-04-30T14:37:31.821Z,57.02
2019-04-30T14:40:04.957Z,56.99
2019-04-30T14:42:38.798Z,57.29
2019-04-30T14:45:12.800Z,57.67
2019-04-30T14:47:49.958Z,57.73
2019-04-30T14:50:22.092Z,58.36
2019-04-30T14:52:55.118Z,58.75
2019-04-30T14:55:45.866Z,58.59
2019-04-30T14:58:35.411Z,59.29
2019-04-30T15:01:19.373Z,59.86
2019-04-30T15:03:51.032Z,59.93
2019-04-30T15:06:29.522Z,59.61
2019-04-30T15:09:01.099Z,59.47
2019-04-30T15:11:34.373Z,60.28
2019-04-30T15:14:05.987Z,60.83
2019-04-30T15:16:37.505Z,60.96
2019-04-30T15:19:09.953Z,61.24
2019-04-30T15:21:41.359Z,61.73
2019-04-30T15:24:17.062Z,62.14
2019-04-30T15:26:57.711Z,61.90
2019-04-30T15:29:24.775Z,61.90
2019-04-30T15:31:56.399Z,62.50
2019-04-30T15:34:29.432Z,64.00
2019-04-30T15:37:01.227Z,64.74
2019-04-30T15:39:35.352Z,65.69
2019-04-30T15:42:07.480Z,66.23
2019-04-30T15:44:42.649Z,66.49
2019-04-30T15:47:12.201Z,67.22
2019-04-30T15:49:43.572Z,67.80
2019-04-30T15:52:15.066Z,68.56
2019-04-30T15:54:46.434Z,68.81
2019-04-30T15:57:19.081Z,68.84
2019-04-30T15:59:50.479Z,69.47
2019-04-30T16:02:23.567Z,69.62
2019-04-30T16:05:11.839Z,69.95
2019-04-30T16:07:50.495Z,70.91
2019-04-30T16:10:35.606Z,71.12
2019-04-30T16:13:15.616Z,70.92
2019-04-30T16:15:49.090Z,70.72
2019-04-30T16:18:20.280Z,70.74
2019-04-30T16:20:51.672Z,70.82
2019-04-30T16:23:23.162Z,70.69
2019-04-30T16:25:54.587Z,70.69
2019-04-30T16:28:26.477Z,70.50
2019-04-30T16:30:58.034Z,70.37
2019-04-30T16:33:29.515Z,70.68
2019-04-30T16:36:01.004Z,70.37
2019-04-30T16:38:33.415Z,70.38
2019-04-30T16:41:04.807Z,70.34
2019-04-30T16:43:36.277Z,70.22
2019-04-30T16:46:07.766Z,70.02
2019-04-30T16:48:39.347Z,69.45
2019-04-30T16:51:10.802Z,69.51
2019-04-30T16:53:42.176Z,69.49
2019-04-30T16:56:13.582Z,69.24
2019-04-30T16:59:01.882Z,69.42
2019-04-30T17:01:34.863Z,69.44
2019-04-30T17:04:10.974Z,69.31
2019-04-30T17:06:44.072Z,69.59
2019-04-30T17:09:33.295Z,69.75
2019-04-30T17:12:08.483Z,70.36
2019-04-30T17:14:41.259Z,70.22
2019-04-30T17:17:12.715Z,70.72
2019-04-30T17:19:44.897Z,70.89
2019-04-30T17:22:16.261Z,71.12
2019-04-30T17:24:49.430Z,71.01
2019-04-30T17:27:22.198Z,71.29
2019-04-30T17:30:02.872Z,71.41
2019-04-30T17:32:34.368Z,71.82
2019-04-30T17:35:09.022Z,71.84
2019-04-30T17:37:42.350Z,72.05
2019-04-30T17:40:14.910Z,72.52
2019-04-30T17:42:46.783Z,72.35
2019-04-30T17:45:19.480Z,72.15
2019-04-30T17:47:50.980Z,72.13
2019-04-30T17:50:24.093Z,72.09
2019-04-30T17:52:55.558Z,72.52
2019-04-30T17:55:29.157Z,73.27
2019-04-30T17:58:00.989Z,73.47
2019-04-30T18:00:35.233Z,73.13
2019-04-30T18:03:08.857Z,72.64
2019-04-30T18:05:40.787Z,73.23
2019-04-30T18:08:12.311Z,73.52
2019-04-30T18:10:44.392Z,73.36
2019-04-30T18:13:15.810Z,73.29
2019-04-30T18:15:48.424Z,73.80
2019-04-30T18:18:23.672Z,73.40
2019-04-30T18:21:11.711Z,73.91
2019-04-30T18:23:44.879Z,73.50
2019-04-30T18:26:17.716Z,74.10
2019-04-30T18:28:49.082Z,74.63
2019-04-30T18:31:20.527Z,74.98
2019-04-30T18:33:52.076Z,74.89
2019-04-30T18:36:24.510Z,75.17
2019-04-30T18:38:55.899Z,74.80
2019-04-30T18:41:29.125Z,75.28
2019-04-30T18:44:00.613Z,75.64
2019-04-30T18:46:32.285Z,75.69
2019-04-30T18:49:04.759Z,76.00
2019-04-30T18:51:39.353Z,75.89
2019-04-30T18:54:09.639Z,75.52
2019-04-30T18:56:41.046Z,75.71
2019-04-30T18:59:12.515Z,76.23
2019-04-30T19:01:44.603Z,76.00
2019-04-30T19:04:16.031Z,75.82
2019-04-30T19:06:50.068Z,75.80
2019-04-30T19:09:35.067Z,75.78
2019-04-30T19:12:19.296Z,75.56
2019-04-30T19:15:07.188Z,75.51
2019-04-30T19:17:41.288Z,75.98
2019-04-30T19:20:20.201Z,76.16
2019-04-30T19:22:51.648Z,75.99
2019-04-30T19:25:23.037Z,76.28
2019-04-30T19:27:54.387Z,76.12
2019-04-30T19:30:29.171Z,76.13
2019-04-30T19:33:00.155Z,75.99
2019-04-30T19:35:31.673Z,76.05
2019-04-30T19:38:03.149Z,76.21
2019-04-30T19:40:34.707Z,76.11
2019-04-30T19:43:06.124Z,76.08
2019-04-30T19:45:38.060Z,76.40
2019-04-30T19:48:10.621Z,76.46
2019-04-30T19:50:42.128Z,76.06
2019-04-30T19:53:13.657Z,76.29
2019-04-30T19:55:45.107Z,75.93
2019-04-30T19:58:27.735Z,75.97
2019-04-30T20:00:50.005Z,76.12
2019-04-30T20:03:24.074Z,75.73
2019-04-30T20:05:55.607Z,75.89
2019-04-30T20:08:28.698Z,75.88
2019-04-30T20:11:00.493Z,75.75
2019-04-30T20:13:37.033Z,75.99
2019-04-30T20:16:05.274Z,75.81
2019-04-30T20:18:36.631Z,76.12
2019-04-30T20:21:09.742Z,76.20
2019-04-30T20:23:42.279Z,76.09
2019-04-30T20:26:14.769Z,75.99
2019-04-30T20:28:46.050Z,75.89
2019-04-30T20:31:19.057Z,75.86
2019-04-30T20:33:53.603Z,76.00
2019-04-30T20:36:23.979Z,75.86
2019-04-30T20:39:02.822Z,75.90
2019-04-30T20:41:35.940Z,75.43
2019-04-30T20:44:08.724Z,75.92
2019-04-30T20:46:40.502Z,76.10
2019-04-30T20:49:15.711Z,76.65
2019-04-30T20:51:55.240Z,76.60
2019-04-30T20:54:20.362Z,76.75
2019-04-30T20:56:51.849Z,76.44
2019-04-30T20:59:23.263Z,76.30
2019-04-30T21:01:54.550Z,76.38
2019-04-30T21:04:26.145Z,76.51
2019-04-30T21:06:59.369Z,76.23
2019-04-30T21:09:30.522Z,76.27
2019-04-30T21:12:01.956Z,76.39
2019-04-30T21:14:33.495Z,76.35
2019-04-30T21:17:05.096Z,76.52
2019-04-30T21:19:36.583Z,76.53
2019-04-30T21:22:09.521Z,76.21
2019-04-30T21:24:41.024Z,76.28
2019-04-30T21:27:12.535Z,76.25
2019-04-30T21:29:44.936Z,76.15
2019-04-30T21:32:18.974Z,76.16
2019-04-30T21:35:01.845Z,75.74
2019-04-30T21:37:34.777Z,76.05
2019-04-30T21:40:09.619Z,76.24
2019-04-30T21:42:40.560Z,76.21
2019-04-30T21:45:12.455Z,75.88
2019-04-30T21:47:55.759Z,75.67
2019-04-30T21:50:20.596Z,75.88
2019-04-30T21:52:53.576Z,76.36
2019-04-30T21:55:26.523Z,76.52
2019-04-30T21:57:59.446Z,76.80
2019-04-30T22:00:35.448Z,77.04
2019-04-30T22:03:09.728Z,76.76
2019-04-30T22:05:41.544Z,76.72
2019-04-30T22:08:13.040Z,76.85
2019-04-30T22:10:44.525Z,76.80
2019-04-30T22:13:16.006Z,76.83
2019-04-30T22:15:47.477Z,77.12
2019-04-30T22:18:19.163Z,77.21
2019-04-30T22:20:50.757Z,77.36
2019-04-30T22:23:22.164Z,77.26
2019-04-30T22:25:53.701Z,77.34
2019-04-30T22:28:25.175Z,77.32
2019-04-30T22:30:58.556Z,77.43
2019-04-30T22:33:29.809Z,77.58
2019-04-30T22:36:03.004Z,77.56
2019-04-30T22:38:36.062Z,78.07
2019-04-30T22:41:08.928Z,78.28
2019-04-30T22:43:40.352Z,77.87
2019-04-30T22:46:13.423Z,77.68
2019-04-30T22:48:44.885Z,77.67
2019-04-30T22:51:16.263Z,78.02
2019-04-30T22:53:48.897Z,78.05
2019-04-30T22:56:20.179Z,77.94
2019-04-30T22:58:53.246Z,78.26
2019-04-30T23:01:38.336Z,78.04
2019-04-30T23:04:11.341Z,78.12
2019-04-30T23:06:42.956Z,78.35
2019-04-30T23:09:15.934Z,78.42
2019-04-30T23:11:52.456Z,78.70
2019-04-30T23:14:23.919Z,78.63
2019-04-30T23:16:55.362Z,78.41
2019-04-30T23:19:26.780Z,78.60
2019-04-30T23:21:58.031Z,78.99
2019-04-30T23:24:30.596Z,78.80
2019-04-30T23:27:02.035Z,79.16
2019-04-30T23:29:33.377Z,79.17
2019-04-30T23:32:04.849Z,79.09
2019-04-30T23:34:36.232Z,79.14
2019-04-30T23:37:07.664Z,78.53
2019-04-30T23:39:39.031Z,78.78
2019-04-30T23:42:10.309Z,78.75
2019-04-30T23:44:41.751Z,79.09
2019-04-30T23:47:12.955Z,79.12
2019-04-30T23:49:44.282Z,79.46
2019-04-30T23:52:15.658Z,79.51
2019-04-30T23:54:47.037Z,79.49
2019-04-30T23:57:18.333Z,79.40
2019-04-30T23:59:49.642Z,79.63
